Time;durP1;ratioP1;P1;durP2;ratioP2;P2;SDS_P1;SDS_P2;PMS_P1;PMS_P2;Temp;Humidity;BMP_temperature;BMP_pressure;BME280_temperature;BME280_humidity;BME280_pressure;Samples;Min_cycle;Max_cycle;Signal;HPM_P1;HPM_P2
2021/12/17 00:00:49;;;;;;;2.13;1.00;;;19.70;54.70;;;;;;5075745;28;20044;-91
2021/12/17 00:03:19;;;;;;;1.95;0.80;;;19.70;54.70;;;;;;5075806;28;20069;-91
2021/12/17 00:08:10;;;;;;;1.92;0.82;;;19.70;54.70;;;;;;5075139;28;20487;-92
2021/12/17 00:10:36;;;;;;;2.05;0.90;;;19.70;54.70;;;;;;5076014;28;20093;-92
2021/12/17 00:13:02;;;;;;;2.05;0.80;;;19.70;54.70;;;;;;5075061;28;20044;-92
2021/12/17 00:15:27;;;;;;;1.50;0.70;;;19.60;54.60;;;;;;5070573;28;20060;-90
2021/12/17 00:17:59;;;;;;;2.13;1.00;;;19.60;54.60;;;;;;5075615;28;20040;-92
2021/12/17 00:40:29;;;;;;;2.20;1.08;;;19.60;54.70;;;;;;5015022;28;20525;-90
2021/12/17 00:52:51;;;;;;;2.25;0.95;;;19.60;54.60;;;;;;5050984;28;20053;-90
2021/12/17 00:55:17;;;;;;;1.40;0.75;;;19.60;54.60;;;;;;5051453;28;20045;-90
2021/12/17 00:57:44;;;;;;;1.88;0.82;;;19.60;55.30;;;;;;5051056;28;20087;-92
2021/12/17 01:00:16;;;;;;;1.25;0.73;;;19.50;54.60;;;;;;5051152;28;20071;-91
2021/12/17 01:02:41;;;;;;;1.73;0.90;;;19.50;54.60;;;;;;5034787;28;20127;-91
2021/12/17 01:05:17;;;;;;;2.30;0.85;;;19.50;54.60;;;;;;5050702;28;20128;-91
2021/12/17 01:07:46;;;;;;;1.98;0.93;;;19.50;54.60;;;;;;5050572;28;20041;-92
2021/12/17 01:10:17;;;;;;;1.58;0.70;;;19.50;54.60;;;;;;5050653;28;20512;-91
2021/12/17 01:12:43;;;;;;;1.63;0.65;;;19.50;54.60;;;;;;5050625;28;20033;-91
2021/12/17 01:15:10;;;;;;;1.45;0.80;;;19.90;54.80;;;;;;5050503;28;20705;-91
2021/12/17 01:17:39;;;;;;;1.60;0.80;;;19.50;54.60;;;;;;5051016;28;20056;-92
2021/12/17 01:20:24;;;;;;;1.40;0.73;;;19.50;54.60;;;;;;5050735;28;20126;-91
2021/12/17 01:35:21;;;;;;;2.22;0.75;;;19.50;54.60;;;;;;5050629;28;20055;-91
2021/12/17 01:36:24;;;;;;;2.03;0.70;;;19.40;54.50;;;;;;5049814;28;20053;-91
2021/12/17 01:41:45;;;;;;;1.30;0.60;;;19.40;54.50;;;;;;5050444;28;20136;-92
2021/12/17 01:44:07;;;;;;;1.73;0.73;;;19.40;54.50;;;;;;5049949;28;20649;-92
2021/12/17 01:46:33;;;;;;;2.38;1.02;;;19.40;54.50;;;;;;5052893;28;20076;-93
2021/12/17 01:59:17;;;;;;;1.27;0.68;;;19.40;54.50;;;;;;5070113;28;20049;-92
2021/12/17 01:59:41;;;;;;;1.30;0.70;;;19.40;54.50;;;;;;5053016;28;20083;-91
2021/12/17 02:02:07;;;;;;;1.13;0.70;;;19.40;54.50;;;;;;5053448;28;20487;-91
2021/12/17 02:04:33;;;;;;;1.60;0.80;;;20.80;55.30;;;;;;5039864;28;20083;-90
2021/12/17 02:06:59;;;;;;;1.70;0.80;;;19.40;54.60;;;;;;5019126;28;20044;-91
2021/12/17 02:10:02;;;;;;;1.10;0.52;;;19.40;54.60;;;;;;5050946;28;20056;-92
2021/12/17 02:12:26;;;;;;;1.40;0.70;;;19.40;54.60;;;;;;5069051;28;20399;-91
2021/12/17 02:19:31;;;;;;;1.40;0.70;;;19.40;54.60;;;;;;5069598;28;20048;-91
2021/12/17 02:21:06;;;;;;;2.63;0.90;;;19.30;54.50;;;;;;5052319;28;20052;-92
2021/12/17 02:32:02;;;;;;;1.10;0.60;;;19.30;54.60;;;;;;4990407;28;20497;-92
2021/12/17 02:37:22;;;;;;;1.40;0.70;;;19.30;54.60;;;;;;4990359;28;20514;-91
2021/12/17 02:40:15;;;;;;;1.20;0.60;;;19.30;54.60;;;;;;4974045;28;20054;-91
2021/12/17 02:45:32;;;;;;;2.13;0.85;;;19.30;54.60;;;;;;4974430;28;20100;-92
2021/12/17 02:45:36;;;;;;;1.45;0.80;;;19.30;54.60;;;;;;4973675;28;20052;-92
2021/12/17 02:48:08;;;;;;;1.30;0.68;;;19.20;54.50;;;;;;4973628;28;20142;-92
2021/12/17 02:50:35;;;;;;;1.67;0.85;;;19.30;54.60;;;;;;4974026;28;20054;-92
2021/12/17 02:53:02;;;;;;;1.55;0.60;;;19.20;54.50;;;;;;4974547;28;20054;-92
2021/12/17 02:55:29;;;;;;;1.25;0.60;;;19.30;54.60;;;;;;4973773;28;20050;-90
2021/12/17 02:57:55;;;;;;;1.10;0.50;;;19.20;54.50;;;;;;4974275;28;20085;-92
2021/12/17 03:00:23;;;;;;;1.95;0.80;;;19.30;54.60;;;;;;4958227;28;20081;-90
2021/12/17 03:02:49;;;;;;;1.10;0.57;;;19.20;54.50;;;;;;4973341;28;20085;-92
2021/12/17 03:05:14;;;;;;;1.02;0.52;;;19.20;54.50;;;;;;4957725;28;20081;-91
2021/12/17 03:07:43;;;;;;;1.40;0.70;;;20.10;55.00;;;;;;4974194;28;20054;-91
2021/12/17 03:10:11;;;;;;;1.25;0.70;;;19.20;54.50;;;;;;4957566;28;20038;-91
2021/12/17 03:23:32;;;;;;;0.77;0.43;;;20.40;55.20;;;;;;5014278;28;20049;-92
2021/12/17 03:26:02;;;;;;;1.10;0.52;;;19.20;54.50;;;;;;5016525;28;20049;-91
2021/12/17 03:28:28;;;;;;;1.17;0.60;;;19.20;54.60;;;;;;5016381;28;20124;-91
2021/12/17 03:30:54;;;;;;;1.40;0.50;;;19.20;54.50;;;;;;4999567;28;20176;-91
2021/12/17 03:33:20;;;;;;;1.17;0.60;;;19.20;54.50;;;;;;5016208;28;20049;-91
2021/12/17 03:35:46;;;;;;;1.95;0.75;;;19.20;54.60;;;;;;5016426;28;20045;-90
2021/12/17 03:38:12;;;;;;;1.27;0.63;;;19.20;54.60;;;;;;5015486;28;20437;-90
2021/12/17 03:40:40;;;;;;;1.00;0.60;;;19.10;54.50;;;;;;5016232;28;20038;-91
2021/12/17 03:43:11;;;;;;;1.13;0.55;;;19.10;54.50;;;;;;5015742;28;20057;-90
2021/12/17 03:45:37;;;;;;;0.95;0.50;;;19.10;54.50;;;;;;5016074;28;20564;-91
2021/12/17 03:48:03;;;;;;;1.23;0.70;;;19.10;54.50;;;;;;5015469;28;20065;-90
2021/12/17 03:50:28;;;;;;;0.75;0.45;;;19.10;54.50;;;;;;5015075;28;20692;-91
2021/12/17 03:52:54;;;;;;;1.02;0.60;;;19.10;54.60;;;;;;5015786;28;20049;-92
2021/12/17 03:55:20;;;;;;;1.02;0.50;;;20.60;55.30;;;;;;5015141;28;20045;-91
2021/12/17 03:57:45;;;;;;;0.95;0.50;;;19.10;54.50;;;;;;5015529;28;20053;-91
2021/12/17 04:00:11;;;;;;;0.82;0.50;;;19.10;54.50;;;;;;5015643;28;20040;-91
2021/12/17 04:02:37;;;;;;;1.35;0.68;;;19.10;54.50;;;;;;5015210;28;20127;-91
2021/12/17 04:05:03;;;;;;;1.10;0.50;;;19.10;54.50;;;;;;5015065;28;20041;-91
2021/12/17 04:07:28;;;;;;;1.08;0.43;;;19.10;54.50;;;;;;5005466;28;20061;-91
2021/12/17 04:09:54;;;;;;;0.95;0.50;;;19.10;54.50;;;;;;4996371;28;20038;-92
2021/12/17 04:12:25;;;;;;;0.85;0.40;;;19.10;54.50;;;;;;4995581;28;20145;-91
2021/12/17 04:14:51;;;;;;;1.08;0.50;;;20.20;55.10;;;;;;4980013;28;20056;-92
2021/12/17 04:17:23;;;;;;;1.30;0.60;;;19.00;54.50;;;;;;4995915;28;20058;-92
2021/12/17 04:19:48;;;;;;;;;;;19.10;54.60;;;;;;4995911;28;20078;-90
2021/12/17 04:22:14;;;;;;;0.85;0.50;;;19.00;54.50;;;;;;4995242;28;19968;-91
2021/12/17 04:24:40;;;;;;;1.23;0.47;;;19.10;54.50;;;;;;4995661;28;20497;-91
2021/12/17 04:27:06;;;;;;;1.20;0.60;;;19.00;54.50;;;;;;4994696;28;20157;-91
2021/12/17 04:29:33;;;;;;;1.20;0.50;;;19.00;54.50;;;;;;4979465;28;20048;-90
2021/12/17 04:31:58;;;;;;;0.98;0.57;;;19.00;54.50;;;;;;4979362;28;20077;-91
2021/12/17 04:34:24;;;;;;;0.90;0.50;;;19.00;54.50;;;;;;4975638;28;20108;-91
2021/12/17 04:36:53;;;;;;;0.70;0.45;;;19.00;54.50;;;;;;4959838;28;20065;-92
2021/12/17 04:39:20;;;;;;;0.95;0.45;;;19.00;54.50;;;;;;4987957;28;20057;-91
2021/12/17 04:41:53;;;;;;;1.02;0.60;;;19.00;54.50;;;;;;4995702;28;20378;-91
2021/12/17 04:44:24;;;;;;;0.90;0.50;;;19.00;54.50;;;;;;4994896;28;20050;-91
2021/12/17 04:57:52;;;;;;;0.73;0.50;;;19.00;54.50;;;;;;4978763;28;20069;-91
2021/12/17 05:00:23;;;;;;;1.00;0.50;;;19.00;54.50;;;;;;5014319;28;20065;-91
2021/12/17 05:02:51;;;;;;;1.33;0.63;;;19.00;54.50;;;;;;5029663;28;20095;-91
2021/12/17 05:05:18;;;;;;;0.70;0.40;;;19.00;55.20;;;;;;5013582;28;20048;-91
2021/12/17 05:07:49;;;;;;;0.60;0.40;;;19.00;54.50;;;;;;5013321;28;20076;-90
2021/12/17 05:18:23;;;;;;;1.10;0.50;;;18.90;54.50;;;;;;5030549;28;20727;-90
2021/12/17 05:20:52;;;;;;;0.90;0.50;;;19.00;54.50;;;;;;5013975;28;20049;-91
2021/12/17 05:23:22;;;;;;;0.65;0.40;;;19.00;55.20;;;;;;5013600;28;20050;-92
2021/12/17 05:25:48;;;;;;;1.00;0.57;;;18.90;54.50;;;;;;5014261;28;20465;-91
2021/12/17 05:28:14;;;;;;;1.10;0.57;;;18.90;54.50;;;;;;5011372;28;20064;-90
2021/12/17 05:30:45;;;;;;;0.98;0.50;;;18.90;54.50;;;;;;5013642;28;20041;-91
2021/12/17 05:33:12;;;;;;;0.82;0.40;;;18.90;54.50;;;;;;5014157;28;20163;-91
2021/12/17 05:35:37;;;;;;;1.23;0.50;;;18.90;54.50;;;;;;5010294;28;20049;-91
2021/12/17 05:38:03;;;;;;;1.17;0.60;;;18.90;54.50;;;;;;5013187;28;20041;-90
2021/12/17 05:40:28;;;;;;;0.80;0.40;;;18.90;54.50;;;;;;5013804;28;20052;-91
2021/12/17 05:42:58;;;;;;;0.63;0.40;;;18.90;54.60;;;;;;5013496;28;20049;-91
2021/12/17 05:45:47;;;;;;;0.90;0.38;;;18.90;54.60;;;;;;5013785;28;20050;-91
2021/12/17 05:48:13;;;;;;;0.60;0.40;;;18.90;54.70;;;;;;5013615;28;20064;-91
2021/12/17 05:50:40;;;;;;;0.88;0.38;;;18.90;54.70;;;;;;5013845;28;20052;-91
2021/12/17 05:53:05;;;;;;;0.70;0.30;;;18.90;54.70;;;;;;5002521;28;20412;-90
2021/12/17 05:55:31;;;;;;;0.98;0.40;;;19.00;54.80;;;;;;5013346;28;20052;-91
2021/12/17 05:57:57;;;;;;;0.85;0.43;;;18.90;54.80;;;;;;5002992;28;20053;-91
2021/12/17 06:00:23;;;;;;;0.80;0.40;;;18.90;54.80;;;;;;5013643;28;20152;-91
2021/12/17 06:02:49;;;;;;;0.57;0.30;;;18.90;54.90;;;;;;4995660;28;20073;-90
2021/12/17 06:05:14;;;;;;;0.90;0.40;;;19.00;54.90;;;;;;4993142;28;20045;-92
2021/12/17 06:07:40;;;;;;;0.55;0.30;;;19.00;54.90;;;;;;4993952;28;20144;-91
2021/12/17 06:10:08;;;;;;;0.77;0.30;;;19.00;54.90;;;;;;4993637;28;20046;-91
2021/12/17 06:12:33;;;;;;;1.00;0.40;;;19.00;54.90;;;;;;4976340;28;20061;-92
2021/12/17 06:15:00;;;;;;;0.80;0.30;;;19.00;54.90;;;;;;4993133;28;20050;-91
2021/12/17 06:17:25;;;;;;;0.90;0.40;;;19.00;55.00;;;;;;4993665;28;20049;-91
2021/12/17 06:19:51;;;;;;;1.05;0.32;;;19.00;54.90;;;;;;4993001;28;20046;-91
2021/12/17 06:22:17;;;;;;;0.60;0.30;;;19.00;54.90;;;;;;4993720;28;20042;-91
2021/12/17 06:24:45;;;;;;;0.68;0.38;;;19.00;54.90;;;;;;4993807;28;20045;-91
2021/12/17 06:27:12;;;;;;;0.88;0.40;;;19.00;54.90;;;;;;4992932;28;20508;-92
2021/12/17 06:29:38;;;;;;;0.90;0.30;;;19.00;54.90;;;;;;4967381;28;20137;-92
2021/12/17 06:32:04;;;;;;;0.50;0.30;;;19.00;54.90;;;;;;5001865;28;20045;-91
2021/12/17 06:34:30;;;;;;;0.73;0.40;;;19.10;55.00;;;;;;4998727;28;20060;-92
2021/12/17 06:36:56;;;;;;;0.60;0.40;;;19.40;55.10;;;;;;4994289;28;20077;-92
2021/12/17 06:39:22;;;;;;;0.85;0.40;;;19.10;55.00;;;;;;4993561;28;20501;-91
2021/12/17 06:41:48;;;;;;;0.93;0.30;;;19.10;55.00;;;;;;4994122;28;20508;-90
2021/12/17 06:44:16;;;;;;;0.73;0.40;;;19.10;55.00;;;;;;4993879;28;20052;-92
2021/12/17 06:49:42;;;;;;;0.50;0.30;;;19.10;55.00;;;;;;5017514;28;20041;-91
2021/12/17 06:55:08;;;;;;;0.45;0.30;;;19.10;55.10;;;;;;5003554;28;20066;-90
2021/12/17 07:09:08;;;;;;;0.70;0.30;;;20.20;55.70;;;;;;4996090;28;20150;-91
2021/12/17 07:10:56;;;;;;;0.55;0.30;;;19.10;55.10;;;;;;4996884;28;20061;-92
2021/12/17 07:20:08;;;;;;;0.57;0.38;;;19.20;55.10;;;;;;4926050;29;20131;-92
2021/12/17 07:22:17;;;;;;;0.70;0.30;;;19.20;55.10;;;;;;4933865;29;20055;-92
2021/12/17 07:33:07;;;;;;;0.90;0.20;;;19.20;55.00;;;;;;5011868;28;20490;-89
2021/12/17 07:35:51;;;;;;;0.68;0.30;;;19.30;55.00;;;;;;4999226;28;20045;-87
2021/12/17 07:41:01;;;;;;;1.05;0.22;;;19.40;55.10;;;;;;4992504;28;20528;-87
2021/12/17 07:44:13;;;;;;;0.70;0.40;;;19.30;55.20;;;;;;4993360;28;20077;-86
2021/12/17 07:46:13;;;;;;;0.50;0.30;;;19.30;54.90;;;;;;4989397;28;20057;-87
2021/12/17 07:48:39;;;;;;;0.77;0.30;;;19.30;54.90;;;;;;4994778;28;20058;-87
2021/12/17 07:51:09;;;;;;;0.40;0.30;;;19.30;54.90;;;;;;4994282;28;20049;-87
2021/12/17 07:53:35;;;;;;;1.40;0.30;;;19.30;54.90;;;;;;4994546;28;20539;-87
2021/12/17 07:56:01;;;;;;;0.90;0.30;;;20.00;55.30;;;;;;4994855;28;20202;-88
2021/12/17 07:58:31;;;;;;;0.73;0.30;;;19.90;55.20;;;;;;4994425;28;20054;-86
2021/12/17 08:00:57;;;;;;;0.45;0.20;;;19.30;54.80;;;;;;4994867;28;20045;-86
2021/12/17 08:03:25;;;;;;;0.30;0.20;;;19.70;55.00;;;;;;4978507;28;20137;-89
2021/12/17 08:05:51;;;;;;;0.43;0.25;;;20.00;55.20;;;;;;4992870;28;20045;-88
2021/12/17 08:08:17;;;;;;;1.85;0.32;;;19.30;54.80;;;;;;4995013;28;20129;-90
2021/12/17 08:10:43;;;;;;;0.52;0.30;;;19.30;54.80;;;;;;4997483;28;20054;-89
2021/12/17 08:13:16;;;;;;;0.60;0.30;;;19.30;54.80;;;;;;4974789;28;20042;-85
2021/12/17 08:15:49;;;;;;;0.77;0.40;;;19.30;54.70;;;;;;4982002;28;20687;-88
2021/12/17 08:18:34;;;;;;;1.10;0.50;;;19.30;54.70;;;;;;4986263;28;20046;-88
2021/12/17 08:26:28;;;;;;;1.35;0.40;;;19.30;54.70;;;;;;5009559;28;20112;-87
2021/12/17 08:29:23;;;;;;;1.92;0.40;;;19.30;54.70;;;;;;4994699;28;20072;-91
2021/12/17 08:31:42;;;;;;;4.25;0.85;;;19.30;54.70;;;;;;4980577;28;20054;-94
2021/12/17 08:34:08;;;;;;;2.17;0.70;;;19.30;54.70;;;;;;4982287;28;20112;-93
2021/12/17 08:36:33;;;;;;;2.83;0.70;;;19.30;54.80;;;;;;5003707;28;20046;-95
2021/12/17 08:38:59;;;;;;;1.52;0.50;;;19.30;54.80;;;;;;4985531;28;20050;-92
2021/12/17 08:41:26;;;;;;;2.67;1.00;;;19.20;54.80;;;;;;5012813;28;20041;-96
2021/12/17 08:43:51;;;;;;;1.42;0.52;;;19.30;55.00;;;;;;4995968;28;20069;-87
2021/12/17 08:46:17;;;;;;;1.92;0.57;;;19.80;55.30;;;;;;5009232;28;20081;-90
2021/12/17 08:48:43;;;;;;;2.83;0.60;;;19.20;54.90;;;;;;4993904;28;20054;-88
2021/12/17 08:51:09;;;;;;;1.95;0.68;;;19.10;54.80;;;;;;5007064;28;20041;-90
2021/12/17 08:53:35;;;;;;;0.93;0.50;;;19.20;55.00;;;;;;4994258;28;20053;-90
2021/12/17 08:56:02;;;;;;;1.48;0.50;;;20.60;55.60;;;;;;4995874;28;20065;-92
2021/12/17 08:58:28;;;;;;;4.90;0.80;;;19.30;54.90;;;;;;4996641;28;20046;-92
2021/12/17 09:00:56;;;;;;;2.28;0.50;;;20.50;55.50;;;;;;4994815;28;20513;-92
2021/12/17 09:03:22;;;;;;;2.08;0.50;;;19.30;54.90;;;;;;4995764;28;20502;-93
2021/12/17 09:05:47;;;;;;;1.23;0.50;;;20.10;55.20;;;;;;4995903;28;20044;-91
2021/12/17 09:08:13;;;;;;;3.70;0.47;;;20.00;55.20;;;;;;4994084;28;20196;-92
2021/12/17 09:10:45;;;;;;;1.40;0.40;;;19.30;54.80;;;;;;4994784;28;20062;-92
2021/12/17 09:13:11;;;;;;;2.15;0.57;;;19.30;54.80;;;;;;4976778;28;60347;-92
2021/12/17 09:15:36;;;;;;;1.42;0.40;;;19.30;54.80;;;;;;4977125;28;20140;-92
2021/12/17 09:18:02;;;;;;;1.00;0.50;;;20.20;55.20;;;;;;4984302;28;20042;-92
2021/12/17 09:20:28;;;;;;;1.13;0.40;;;19.30;54.70;;;;;;4992644;28;20054;-91
2021/12/17 09:22:53;;;;;;;1.60;0.40;;;19.80;55.00;;;;;;4992702;28;20041;-92
2021/12/17 09:25:19;;;;;;;0.93;0.28;;;20.00;55.10;;;;;;5010486;28;20053;-92
2021/12/17 09:27:45;;;;;;;0.88;0.30;;;19.30;54.70;;;;;;5015313;28;20065;-88
2021/12/17 09:30:12;;;;;;;0.88;0.30;;;19.30;54.70;;;;;;5013735;28;20638;-89
2021/12/17 09:32:40;;;;;;;1.48;0.40;;;19.30;54.70;;;;;;4982735;28;20062;-90
2021/12/17 09:35:08;;;;;;;1.42;0.30;;;19.30;54.70;;;;;;5003216;28;20045;-90
2021/12/17 09:37:33;;;;;;;1.05;0.50;;;19.40;54.80;;;;;;4998658;28;20054;-84
2021/12/17 09:39:59;;;;;;;0.65;0.30;;;19.40;54.80;;;;;;4993868;28;20570;-91
2021/12/17 09:42:28;;;;;;;0.60;0.30;;;19.90;55.00;;;;;;4982948;28;20049;-90
2021/12/17 09:44:53;;;;;;;1.60;0.35;;;19.60;54.90;;;;;;5014919;28;20179;-91
2021/12/17 09:47:19;;;;;;;0.75;0.30;;;19.70;54.90;;;;;;5010417;28;20140;-90
2021/12/17 09:49:45;;;;;;;1.13;0.30;;;19.40;54.70;;;;;;4990236;28;20437;-90
2021/12/17 09:52:11;;;;;;;0.90;0.40;;;19.30;54.80;;;;;;4991568;28;20587;-91
2021/12/17 09:54:40;;;;;;;1.05;0.40;;;19.40;54.70;;;;;;4990717;28;20534;-92
2021/12/17 09:57:06;;;;;;;0.90;0.40;;;19.30;54.70;;;;;;4957179;28;20062;-91
2021/12/17 09:59:31;;;;;;;1.10;0.30;;;20.80;55.50;;;;;;4991150;28;20058;-91
2021/12/17 10:01:57;;;;;;;1.20;0.40;;;19.70;54.90;;;;;;4991449;28;20096;-91
2021/12/17 10:04:31;;;;;;;0.88;0.25;;;19.30;54.70;;;;;;4990580;28;20144;-91
2021/12/17 10:07:21;;;;;;;0.82;0.40;;;19.30;54.70;;;;;;4990471;28;20042;-87
2021/12/17 10:09:52;;;;;;;0.50;0.30;;;19.30;54.70;;;;;;4560539;28;10008453;-88
2021/12/17 10:12:24;;;;;;;1.08;0.30;;;19.30;54.70;;;;;;4971109;28;20081;-89
2021/12/17 10:15:12;;;;;;;1.27;0.40;;;19.30;54.70;;;;;;4988861;28;20120;-88
2021/12/17 10:18:02;;;;;;;2.00;0.40;;;19.30;54.80;;;;;;4985992;28;20050;-89
2021/12/17 10:20:41;;;;;;;2.25;0.40;;;19.80;55.10;;;;;;4990822;28;20042;-92
2021/12/17 10:23:08;;;;;;;1.27;0.40;;;19.30;54.80;;;;;;4990927;28;20053;-85
2021/12/17 10:25:35;;;;;;;1.52;0.43;;;19.30;54.90;;;;;;4987980;28;20116;-85
2021/12/17 10:28:03;;;;;;;2.47;0.40;;;19.40;55.70;;;;;;4988191;28;20421;-84
2021/12/17 10:30:29;;;;;;;1.75;0.73;;;19.30;55.00;;;;;;4988250;28;20061;-88
2021/12/17 10:32:57;;;;;;;0.73;0.40;;;19.40;55.00;;;;;;4985750;28;20081;-86
2021/12/17 10:35:33;;;;;;;3.83;0.60;;;19.40;55.00;;;;;;4985908;28;20133;-89
2021/12/17 10:38:03;;;;;;;2.83;0.55;;;19.40;55.00;;;;;;4988074;28;20061;-89
2021/12/17 10:40:37;;;;;;;1.33;0.52;;;19.40;55.00;;;;;;4970828;28;20056;-89
2021/12/17 10:43:16;;;;;;;1.15;0.50;;;19.40;55.00;;;;;;4969141;28;20081;-89
2021/12/17 10:45:56;;;;;;;1.15;0.40;;;19.40;54.90;;;;;;4984087;28;20078;-88
2021/12/17 10:48:32;;;;;;;0.52;0.20;;;19.40;54.90;;;;;;4968426;28;20430;-89
2021/12/17 10:51:17;;;;;;;1.67;0.40;;;19.40;54.90;;;;;;4972512;28;20129;-89
2021/12/17 10:53:56;;;;;;;1.02;0.50;;;19.50;54.90;;;;;;4971378;28;20054;-88
2021/12/17 10:56:24;;;;;;;2.00;0.40;;;19.50;55.00;;;;;;4975127;28;20644;-87
2021/12/17 10:58:57;;;;;;;2.80;0.30;;;19.50;54.90;;;;;;4970836;28;20051;-88
2021/12/17 11:01:54;;;;;;;1.17;0.45;;;19.50;54.90;;;;;;4968619;28;20113;-87
2021/12/17 11:04:29;;;;;;;0.65;0.40;;;19.50;54.90;;;;;;4969503;28;20059;-93
2021/12/17 11:06:59;;;;;;;1.45;0.47;;;19.50;54.90;;;;;;4967415;28;20089;-88
2021/12/17 11:09:32;;;;;;;2.47;0.45;;;19.50;54.90;;;;;;4971727;28;20132;-92
2021/12/17 11:12:01;;;;;;;5.72;0.60;;;20.60;55.40;;;;;;4967091;28;20679;-90
2021/12/17 11:14:27;;;;;;;1.55;0.40;;;19.50;54.80;;;;;;4969302;28;20068;-93
2021/12/17 11:16:53;;;;;;;1.77;0.40;;;20.50;55.30;;;;;;4970855;28;20090;-91
2021/12/17 11:19:31;;;;;;;1.73;0.30;;;21.00;55.70;;;;;;4970757;28;20039;-93
2021/12/17 11:21:57;;;;;;;1.45;0.45;;;18.10;54.30;;;;;;4974237;28;20483;-91
2021/12/17 11:24:25;;;;;;;1.15;0.30;;;19.20;54.70;;;;;;4990518;28;20042;-92
2021/12/17 11:26:56;;;;;;;1.60;0.50;;;19.50;55.10;;;;;;4980120;28;20133;-91
2021/12/17 11:29:31;;;;;;;1.20;0.32;;;19.50;54.70;;;;;;4969558;28;20090;-90
2021/12/17 11:32:07;;;;;;;2.30;0.30;;;20.80;55.60;;;;;;4970252;28;20043;-90
2021/12/17 11:34:38;;;;;;;1.30;0.55;;;19.40;54.80;;;;;;4970849;28;20061;-93
2021/12/17 11:37:10;;;;;;;0.82;0.30;;;18.70;54.70;;;;;;4975093;28;20047;-93
2021/12/17 11:39:59;;;;;;;0.38;0.20;;;20.90;55.70;;;;;;4959677;28;20186;-94
2021/12/17 11:42:58;;;;;;;0.57;0.30;;;18.70;54.50;;;;;;4959831;28;20054;-94
2021/12/17 11:45:55;;;;;;;4.85;0.68;;;19.40;54.70;;;;;;4973752;28;20057;-94
2021/12/17 11:48:51;;;;;;;0.60;0.30;;;20.50;55.30;;;;;;4974224;28;20097;-91
2021/12/17 11:51:25;;;;;;;2.40;0.30;;;19.40;54.70;;;;;;4970762;28;20464;-91
2021/12/17 11:54:16;;;;;;;1.33;0.30;;;19.40;54.70;;;;;;4967311;28;20077;-92
2021/12/17 11:56:43;;;;;;;1.17;0.10;;;19.40;54.70;;;;;;4970948;28;20486;-92
2021/12/17 11:59:55;;;;;;;1.45;0.20;;;19.00;54.50;;;;;;4985209;28;20049;-92
2021/12/17 12:03:09;;;;;;;0.82;0.28;;;19.50;54.70;;;;;;4972525;28;20090;-89
2021/12/17 12:05:36;;;;;;;1.00;0.35;;;19.30;54.60;;;;;;4960392;28;20047;-91
2021/12/17 12:08:50;;;;;;;0.95;0.30;;;19.40;54.70;;;;;;4973818;28;20085;-92
2021/12/17 12:11:23;;;;;;;0.25;0.10;;;19.40;54.70;;;;;;4968650;28;20062;-90
2021/12/17 12:13:51;;;;;;;1.08;0.20;;;19.40;54.70;;;;;;4974817;28;20070;-90
2021/12/17 12:16:41;;;;;;;0.80;0.30;;;20.90;55.50;;;;;;4972530;28;20062;-92
2021/12/17 12:19:25;;;;;;;0.45;0.20;;;19.50;54.70;;;;;;4970547;28;20046;-85
2021/12/17 12:22:03;;;;;;;0.40;0.20;;;18.60;54.70;;;;;;4973037;28;20142;-90
2021/12/17 12:24:29;;;;;;;1.13;0.20;;;19.40;54.70;;;;;;4976363;28;20068;-93
2021/12/17 12:26:59;;;;;;;0.28;0.20;;;20.80;55.70;;;;;;4958054;28;20050;-93
2021/12/17 12:29:43;;;;;;;0.65;0.20;;;18.60;54.30;;;;;;4621377;28;10000749;-90
2021/12/17 12:32:13;;;;;;;0.73;0.10;;;19.20;54.80;;;;;;4951846;28;20486;-93
2021/12/17 12:34:55;;;;;;;0.85;0.30;;;20.60;55.30;;;;;;4972077;28;20094;-91
2021/12/17 12:37:30;;;;;;;1.05;0.20;;;20.30;55.30;;;;;;4973904;28;20446;-92
2021/12/17 12:40:16;;;;;;;1.73;0.20;;;17.50;54.00;;;;;;4974298;28;20097;-91
2021/12/17 12:42:51;;;;;;;0.90;0.20;;;20.60;55.50;;;;;;4969742;28;20083;-92
2021/12/17 12:45:39;;;;;;;0.52;0.28;;;19.40;55.20;;;;;;4960676;28;20098;-92
2021/12/17 12:48:38;;;;;;;0.82;0.30;;;19.40;54.70;;;;;;5014759;23;20065;-94
2021/12/17 12:51:37;;;;;;;1.92;0.50;;;18.90;54.40;;;;;;5030058;28;20486;-96
2021/12/17 12:54:16;;;;;;;2.22;0.50;;;18.70;54.30;;;;;;4980880;28;20070;-96
2021/12/17 12:57:07;;;;;;;4.28;1.08;;;19.50;55.30;;;;;;5015544;28;20045;-96
2021/12/17 12:59:35;;;;;;;3.50;0.80;;;19.50;54.80;;;;;;4986502;28;20049;-96
2021/12/17 13:02:40;;;;;;;5.07;0.60;;;19.90;56.30;;;;;;4985291;28;20033;-95
2021/12/17 13:05:07;;;;;;;1.75;0.50;;;19.60;55.00;;;;;;4954207;28;20058;-83
2021/12/17 13:07:53;;;;;;;2.50;0.50;;;19.40;55.00;;;;;;4947770;28;20046;-85
2021/12/17 13:10:35;;;;;;;2.10;0.70;;;19.30;54.90;;;;;;4970220;28;20055;-84
2021/12/17 13:13:03;;;;;;;1.60;0.60;;;19.40;54.90;;;;;;4990430;28;20058;-84
2021/12/17 13:24:10;;;;;;;2.13;0.60;;;19.70;55.70;;;;;;5032940;23;20508;-89
2021/12/17 13:27:09;;;;;;;5.85;1.05;;;19.40;55.10;;;;;;4980248;28;20535;-85
2021/12/17 13:29:45;;;;;;;1.65;0.60;;;19.40;55.20;;;;;;4989264;28;20378;-87
2021/12/17 13:32:22;;;;;;;2.35;0.60;;;21.10;56.40;;;;;;4985043;28;20061;-87
2021/12/17 13:35:09;;;;;;;2.45;0.68;;;17.70;54.60;;;;;;4976146;28;20042;-88
2021/12/17 13:37:47;;;;;;;4.30;0.70;;;20.00;55.60;;;;;;4991295;28;20062;-82
2021/12/17 13:40:13;;;;;;;4.68;0.50;;;19.40;55.70;;;;;;4984648;28;20064;-82
2021/12/17 13:42:39;;;;;;;2.88;0.50;;;19.40;55.70;;;;;;4991277;28;20478;-81
2021/12/17 13:45:20;;;;;;;2.80;0.50;;;19.40;55.60;;;;;;4990879;28;20073;-80
2021/12/17 13:47:47;;;;;;;2.50;0.35;;;19.40;55.60;;;;;;4986661;28;20060;-81
2021/12/17 13:50:18;;;;;;;1.33;0.43;;;19.50;55.90;;;;;;4976983;28;20413;-84
2021/12/17 13:53:03;;;;;;;2.03;0.65;;;19.40;56.40;;;;;;5025589;28;20049;-81
2021/12/17 13:55:39;;;;;;;1.05;0.40;;;19.40;55.90;;;;;;5032167;28;20065;-84
2021/12/17 13:58:15;;;;;;;3.45;0.50;;;19.40;55.80;;;;;;5025518;28;20057;-84
2021/12/17 14:00:43;;;;;;;2.20;0.60;;;19.50;56.00;;;;;;5005716;28;20042;-84
2021/12/17 14:03:11;;;;;;;2.38;0.55;;;19.40;56.00;;;;;;4986204;28;20135;-84
2021/12/17 14:05:40;;;;;;;3.88;0.77;;;19.40;56.00;;;;;;5007364;28;20500;-84
2021/12/17 14:08:11;;;;;;;4.18;0.50;;;19.40;56.00;;;;;;5023290;28;20124;-84
2021/12/17 14:10:36;;;;;;;2.85;0.60;;;19.40;56.00;;;;;;5021528;28;20060;-84
2021/12/17 14:13:03;;;;;;;1.58;0.60;;;19.40;56.00;;;;;;5024924;28;20050;-84
2021/12/17 14:15:31;;;;;;;1.88;0.60;;;19.40;56.00;;;;;;4991383;28;20044;-84
2021/12/17 14:18:04;;;;;;;1.73;0.50;;;19.40;56.00;;;;;;4990772;28;20054;-84
2021/12/17 14:20:40;;;;;;;1.90;0.40;;;19.40;56.00;;;;;;5024473;28;20068;-84
2021/12/17 14:23:08;;;;;;;1.00;0.40;;;19.30;55.90;;;;;;4992337;28;20421;-84
2021/12/17 14:25:39;;;;;;;1.52;0.50;;;19.30;55.90;;;;;;4991348;28;20563;-84
2021/12/17 14:28:31;;;;;;;2.10;0.70;;;19.40;56.00;;;;;;5008474;28;20049;-84
2021/12/17 14:31:04;;;;;;;2.72;0.40;;;19.40;56.00;;;;;;4991677;28;20099;-84
2021/12/17 14:33:45;;;;;;;2.33;0.50;;;19.30;56.10;;;;;;5023256;28;20517;-94
2021/12/17 14:36:11;;;;;;;5.15;0.50;;;19.30;56.00;;;;;;4992627;28;20124;-88
2021/12/17 14:38:55;;;;;;;5.18;0.57;;;19.30;56.00;;;;;;4976719;28;20566;-86
2021/12/17 14:41:37;;;;;;;6.53;0.70;;;19.30;56.10;;;;;;4972380;28;20050;-86
2021/12/17 14:44:31;;;;;;;;;;;19.30;56.10;;;;;;4973437;28;20046;-86
2021/12/17 14:47:08;;;;;;;3.20;0.50;;;19.30;56.10;;;;;;4975471;28;20360;-84
2021/12/17 14:58:52;;;;;;;1.42;0.40;;;19.40;56.80;;;;;;4991233;28;20070;-87
2021/12/17 15:00:49;;;;;;;1.63;0.55;;;19.40;56.10;;;;;;4971794;28;20054;-85
2021/12/17 15:03:40;;;;;;;1.42;0.30;;;19.40;56.00;;;;;;4990504;28;20069;-83
2021/12/17 15:06:06;;;;;;;2.00;0.52;;;19.50;56.10;;;;;;4969968;28;20679;-83
2021/12/17 15:08:31;;;;;;;1.52;0.50;;;19.50;56.10;;;;;;4988592;28;20069;-81
2021/12/17 15:10:58;;;;;;;0.60;0.30;;;19.50;56.20;;;;;;4985272;28;20093;-81
2021/12/17 15:13:24;;;;;;;1.67;0.30;;;19.50;56.20;;;;;;4984487;28;20599;-83
2021/12/17 15:15:50;;;;;;;2.10;0.40;;;19.50;56.20;;;;;;5005321;28;20049;-83
2021/12/17 15:18:19;;;;;;;6.28;0.75;;;19.60;56.20;;;;;;4987990;28;20057;-83
2021/12/17 15:20:50;;;;;;;3.22;0.50;;;19.50;56.10;;;;;;5012857;28;20049;-83
2021/12/17 15:23:16;;;;;;;0.77;0.30;;;19.60;56.20;;;;;;4995099;28;20501;-84
2021/12/17 15:25:42;;;;;;;2.05;0.40;;;19.60;56.20;;;;;;4995380;28;20054;-84
2021/12/17 15:28:09;;;;;;;0.88;0.40;;;19.60;56.20;;;;;;4994745;28;20408;-83
2021/12/17 15:30:37;;;;;;;0.80;0.40;;;19.60;56.10;;;;;;4976151;28;20070;-84
2021/12/17 15:33:04;;;;;;;1.05;0.30;;;19.60;56.20;;;;;;4969158;28;20058;-92
2021/12/17 15:35:29;;;;;;;1.85;0.45;;;19.60;56.20;;;;;;4986378;28;20078;-86
2021/12/17 15:37:56;;;;;;;1.02;0.30;;;19.60;56.20;;;;;;4993055;28;20137;-87
2021/12/17 15:40:21;;;;;;;1.25;0.50;;;18.40;55.50;;;;;;5008467;28;20047;-89
2021/12/17 15:42:48;;;;;;;1.80;0.30;;;19.70;56.20;;;;;;5003531;28;20108;-88
2021/12/17 15:45:14;;;;;;;1.35;0.30;;;19.60;56.10;;;;;;4990344;28;20046;-88